Flight Track Log - Related Links

Times and Time Zones

All times are in EDT time to prevent confusion due to time zone crossing. See the N146TS flight status page for this flight to view local times or setup timezone preferences in your user account.

Time Position Orientation Groundspeed Altitude Reporting Facility
EDT Latitude Longitude Course Direction KTS MPH feet Rate Location/Type
Sun 01:23:00 PM 43.0408 -73.5792 187° South 105 121 2,500  Level Boston Center
Sun 01:24:01 PM 43.0094 -73.5872 191° South 108 124 2,600 149 Climbing Boston Center
Sun 01:25:01 PM 42.9822 -73.6036 204° Southwest 105 121 2,800 99 Climbing Boston Center
Sun 01:26:02 PM 42.9550 -73.6089 188° South 105 121 2,800 -103 Level Boston Center
Sun 01:26:57 PM 42.9258 -73.6169 191° South 111 128 2,600 -110 Descending Boston Center
Sun 01:27:51 PM 42.9006 -73.6247 193° South 116 133 2,600 -209 Level Boston Center
Sun 01:28:00 PM 42.6860 -73.2786 187° South  Level Estimated
Sun 01:28:52 PM 42.8714 -73.6469 209° Southwest 114 131 2,200  Level Boston Center
Sun 01:29:53 PM 42.8442 -73.6550 192° South 99 114 1,800 -443 Descending Boston Center
Sun 01:30:54 PM 42.8169 -73.6600 188° South 101 116 1,300 -331 Descending Boston Center
Sun 01:32:00 PM 42.7897 -73.6736 200° South 104 120 1,100 -135 Descending Boston Center
Sun 01:33:07 PM 42.7583 -73.6872 198° South 100 115 1,000  Descending Boston Center
Sun 01:34:08 PM 42.7331 -73.7008 202° Southwest 90 104 1,100 49 Climbing Boston Center
Sun 01:35:09 PM 42.7100 -73.7089 194° South 91 105 1,100  Level Boston Center
Sun 01:36:10 PM 42.6828 -73.7253 204° Southwest 98 113 1,100 -50 Level Boston Center
Sun 01:37:10 PM 42.6617 -73.7444 214° Southwest 98 113 1,000  Descending Boston Center
Sun 01:38:11 PM 42.6367 -73.7553 198° South 93 107 1,100  Climbing Boston Center
Sun 01:39:12 PM 42.6114 -73.7661 198° South 92 106 1,000  Descending Boston Center
Sun 01:40:13 PM 42.5864 -73.7628 174° South 92 106 1,100 50 Climbing Boston Center
Sun 01:41:13 PM 42.5594 -73.7619 179° South 89 102 1,100  Level Boston Center
Sun 01:42:14 PM 42.5344 -73.7672 189° South 90 104 1,100  Level Boston Center
Sun 01:43:21 PM 42.5133 -73.7836 210° Southwest 105 121 1,100 -47 Level Boston Center
Sun 01:44:21 PM 42.4883 -73.7886 188° South 98 113 1,000  Descending Boston Center
Sun 01:45:34 PM 42.4569 -73.7825 172° South 98 113 1,100 47 Climbing Boston Center
Sun 01:46:29 PM 42.4319 -73.7847 184° South 100 115 1,100  Level Boston Center
Sun 01:47:36 PM 42.4031 -73.7783 171° South 98 113 1,100 -55 Level Boston Center
Sun 01:48:18 PM 42.3983 -73.8036 256° West 115 132 1,000  Descending Boston Center
Sun 01:49:19 PM 42.3756 -73.7947 164° South 90 104 1,100 214 Climbing Boston Center
Sun 01:50:38 PM 42.3467 -73.7772 156° South 87 100 1,500 328 Climbing Boston Center
Sun 01:51:27 PM 42.3322 -73.7628 144° Southeast 83 96 1,800 393 Climbing Boston Center
Sun 01:52:40 PM 42.3075 -73.7511 161° South 74 85 2,300 406 Climbing Boston Center
Sun 01:53:40 PM 42.2886 -73.7450 167° South 77 89 2,700 446 Climbing Boston Center
Sun 01:54:41 PM 42.2636 -73.7389 170° South 79 91 3,200 393 Climbing Boston Center
Sun 01:55:42 PM 42.2431 -73.7331 168° South 77 89 3,500 188 Climbing Boston Center
Sun 01:56:49 PM 42.2161 -73.7239 166° South 102 117 3,600 47 Climbing Boston Center
Sun 01:57:50 PM 42.1869 -73.7178 171° South 109 125 3,600  Level Boston Center
Sun 01:58:44 PM 42.1578 -73.7061 163° South 107 123 3,600  Level Boston Center
Sun 01:59:45 PM 42.1286 -73.6997 171° South 110 127 3,600  Level Boston Center
Sun 02:00:28 PM 42.1058 -73.6939 169° South 114 131 3,600  Level Boston Center
Sun 02:01:41 PM 42.0706 -73.6847 169° South 108 124 3,600  Level Boston Center
Sun 02:03:00 PM 42.0382 -73.6739 166° South  Level FlightAware Approximate
Sun 02:10:00 PM 41.8653 -73.6190 167° South  Level FlightAware Approximate
Sun 02:11:00 PM 41.8406 -73.6115 167° South  Level FlightAware Approximate
Sun 02:12:00 PM 41.8159 -73.6039 167° South  Level FlightAware Approximate
Sun 02:13:00 PM 41.7911 -73.5964 167° South  Level FlightAware Approximate
Sun 02:14:00 PM 41.7664 -73.5889 167° South  Level FlightAware Approximate
Sun 02:15:00 PM 41.7417 -73.5814 167° South  Level FlightAware Approximate
Sun 02:16:00 PM 41.7169 -73.5738 167° South  Level FlightAware Approximate
Sun 02:17:00 PM 41.6922 -73.5663 167° South  Level FlightAware Approximate
Sun 02:18:00 PM 41.6675 -73.5588 167° South  Level FlightAware Approximate
Sun 02:19:00 PM 41.6427 -73.5513 167° South  Level FlightAware Approximate
Sun 02:20:00 PM 41.6180 -73.5438 167° South  Level FlightAware Approximate
Sun 02:21:00 PM 41.5933 -73.5363 167° South  Level FlightAware Approximate
Sun 02:22:00 PM 41.5685 -73.5293 168° South  Level FlightAware Approximate
Sun 02:23:00 PM 41.5437 -73.5225 168° South  Level FlightAware Approximate
Sun 02:24:00 PM 41.5188 -73.5157 168° South  Level FlightAware Approximate
Sun 02:25:00 PM 41.4940 -73.5089 168° South  Level FlightAware Approximate
Sun 02:26:00 PM 41.4691 -73.5022 168° South  Level FlightAware Approximate
Sun 02:27:00 PM 41.4443 -73.4954 168° South  Level FlightAware Approximate
Sun 02:28:00 PM 41.4195 -73.4886 168° South  Level FlightAware Approximate
Sun 02:29:00 PM 41.3948 -73.4808 159° South  Level FlightAware Approximate
Sun 02:30:00 PM 41.3711 -73.4689 159° South  Level FlightAware Approximate
Sun 02:31:00 PM 41.3667 -73.4667 159° South  Level FlightAware Approximate
Sun 02:32:00 PM 41.3715 -73.4822 159° South  Level Estimated
Sun 02:33:00 PM 41.3715 -73.4822 159° South  Level Estimated
Sun 02:34:00 PM 41.3715 -73.4822 159° South  Level Estimated
Sun 02:35:00 PM 41.3715 -73.4822 159° South  Level Estimated
Sun 02:36:00 PM 41.3715 -73.4822 159° South  Level Estimated
Sun 02:37:00 PM 41.3715 -73.4822 159° South  Level Estimated
Sun 02:38:00 PM 41.3715 -73.4822 159° South  Level Estimated
Sun 02:39:00 PM 41.3715 -73.4822 159° South  Level Estimated
Sun 02:40:00 PM 41.3715 -73.4822 159° South  Level Estimated
Sun 02:41:00 PM 41.3715 -73.4822 159° South  Level Estimated
Sun 02:42:00 PM 41.3715 -73.4822 159° South  Level Estimated
Sun 02:43:00 PM 41.3715 -73.4822 159° South  Level Estimated
Sun 02:44:00 PM 41.3715 -73.4822 159° South  Level Estimated
Sun 02:45:00 PM 41.3715 -73.4822 159° South  Level Estimated
Sun 02:46:00 PM 41.3715 -73.4822 159° South  Level Estimated
Sun 02:47:00 PM 41.3715 -73.4822 159° South  Level Estimated
Sun 02:48:00 PM 41.3715 -73.4822 159° South  Level Estimated

Login

Don't have an account? Register now (free) for customized features, flight alerts, and more!